sensor_id;sensor_type;location;lat;lon;timestamp;temperature;humidity
74617;DHT22;63123;50.906;4.198;2022-09-12T00:03:31;22.00;64.60
74617;DHT22;63123;50.906;4.198;2022-09-12T00:05:56;22.00;64.60
74617;DHT22;63123;50.906;4.198;2022-09-12T00:08:22;22.00;64.60
74617;DHT22;63123;50.906;4.198;2022-09-12T00:10:47;22.00;64.50
74617;DHT22;63123;50.906;4.198;2022-09-12T00:13:13;22.00;64.40
74617;DHT22;63123;50.906;4.198;2022-09-12T00:15:41;22.00;64.60
74617;DHT22;63123;50.906;4.198;2022-09-12T00:18:14;22.00;64.50
74617;DHT22;63123;50.906;4.198;2022-09-12T00:20:41;22.00;64.40
74617;DHT22;63123;50.906;4.198;2022-09-12T00:23:07;22.00;64.60
74617;DHT22;63123;50.906;4.198;2022-09-12T00:25:33;22.00;65.10
74617;DHT22;63123;50.906;4.198;2022-09-12T00:27:58;22.00;64.60
74617;DHT22;63123;50.906;4.198;2022-09-12T00:30:24;22.00;64.50
74617;DHT22;63123;50.906;4.198;2022-09-12T00:32:50;22.00;64.50
74617;DHT22;63123;50.906;4.198;2022-09-12T00:35:16;22.00;64.60
74617;DHT22;63123;50.906;4.198;2022-09-12T00:37:41;22.00;64.50
74617;DHT22;63123;50.906;4.198;2022-09-12T00:40:07;22.00;64.60
74617;DHT22;63123;50.906;4.198;2022-09-12T00:42:33;22.00;64.50
74617;DHT22;63123;50.906;4.198;2022-09-12T00:44:58;22.00;64.40
74617;DHT22;63123;50.906;4.198;2022-09-12T00:47:28;22.00;64.40
74617;DHT22;63123;50.906;4.198;2022-09-12T00:50:11;22.00;64.40
74617;DHT22;63123;50.906;4.198;2022-09-12T00:52:48;22.00;64.50
74617;DHT22;63123;50.906;4.198;2022-09-12T00:55:19;22.00;64.40
74617;DHT22;63123;50.906;4.198;2022-09-12T00:57:54;22.00;64.50
74617;DHT22;63123;50.906;4.198;2022-09-12T01:00:24;22.00;64.60
74617;DHT22;63123;50.906;4.198;2022-09-12T01:03:03;22.00;64.50
74617;DHT22;63123;50.906;4.198;2022-09-12T01:05:32;22.00;64.40
74617;DHT22;63123;50.906;4.198;2022-09-12T01:08:00;22.00;64.40
74617;DHT22;63123;50.906;4.198;2022-09-12T01:10:26;22.00;64.50
74617;DHT22;63123;50.906;4.198;2022-09-12T01:12:52;22.00;64.60
74617;DHT22;63123;50.906;4.198;2022-09-12T01:15:18;22.00;64.50
74617;DHT22;63123;50.906;4.198;2022-09-12T01:28:41;22.00;64.40
74617;DHT22;63123;50.906;4.198;2022-09-12T01:31:28;22.00;64.60
74617;DHT22;63123;50.906;4.198;2022-09-12T01:39:03;21.90;64.40
74617;DHT22;63123;50.906;4.198;2022-09-12T01:41:53;22.00;64.50
74617;DHT22;63123;50.906;4.198;2022-09-12T01:52:51;22.00;64.40
74617;DHT22;63123;50.906;4.198;2022-09-12T01:58:06;21.90;64.40
74617;DHT22;63123;50.906;4.198;2022-09-12T02:00:34;21.90;64.40
74617;DHT22;63123;50.906;4.198;2022-09-12T02:03:08;21.90;64.50
74617;DHT22;63123;50.906;4.198;2022-09-12T02:05:40;22.00;64.50
74617;DHT22;63123;50.906;4.198;2022-09-12T02:08:15;22.00;64.40
74617;DHT22;63123;50.906;4.198;2022-09-12T02:10:48;21.90;64.40
74617;DHT22;63123;50.906;4.198;2022-09-12T02:13:24;21.90;64.40
74617;DHT22;63123;50.906;4.198;2022-09-12T02:15:57;21.90;64.50
74617;DHT22;63123;50.906;4.198;2022-09-12T02:18:26;21.90;64.50
74617;DHT22;63123;50.906;4.198;2022-09-12T02:20:55;21.90;64.40
74617;DHT22;63123;50.906;4.198;2022-09-12T02:23:24;21.90;64.50
74617;DHT22;63123;50.906;4.198;2022-09-12T02:25:53;21.90;64.30
74617;DHT22;63123;50.906;4.198;2022-09-12T02:28:29;21.90;64.50
74617;DHT22;63123;50.906;4.198;2022-09-12T02:31:50;21.90;64.30
74617;DHT22;63123;50.906;4.198;2022-09-12T02:37:11;21.90;64.40
74617;DHT22;63123;50.906;4.198;2022-09-12T02:39:41;21.90;64.30
74617;DHT22;63123;50.906;4.198;2022-09-12T02:42:07;21.90;64.50
74617;DHT22;63123;50.906;4.198;2022-09-12T02:44:33;21.90;64.30
74617;DHT22;63123;50.906;4.198;2022-09-12T02:47:05;22.00;64.50
74617;DHT22;63123;50.906;4.198;2022-09-12T02:49:33;21.90;64.40
74617;DHT22;63123;50.906;4.198;2022-09-12T02:51:59;22.00;64.40
74617;DHT22;63123;50.906;4.198;2022-09-12T02:54:25;21.90;64.30
74617;DHT22;63123;50.906;4.198;2022-09-12T02:56:52;21.90;64.30
74617;DHT22;63123;50.906;4.198;2022-09-12T02:59:18;21.90;64.40
74617;DHT22;63123;50.906;4.198;2022-09-12T03:07:22;22.00;64.50
74617;DHT22;63123;50.906;4.198;2022-09-12T03:24:14;21.90;64.30
74617;DHT22;63123;50.906;4.198;2022-09-12T03:29:15;21.90;64.30
74617;DHT22;63123;50.906;4.198;2022-09-12T03:31:53;21.90;64.30
74617;DHT22;63123;50.906;4.198;2022-09-12T03:34:20;22.00;64.40
74617;DHT22;63123;50.906;4.198;2022-09-12T03:36:47;21.90;64.30
74617;DHT22;63123;50.906;4.198;2022-09-12T03:39:12;22.00;64.30
74617;DHT22;63123;50.906;4.198;2022-09-12T03:41:38;21.90;64.40
74617;DHT22;63123;50.906;4.198;2022-09-12T03:44:04;21.90;64.30
74617;DHT22;63123;50.906;4.198;2022-09-12T03:46:29;21.90;64.40
74617;DHT22;63123;50.906;4.198;2022-09-12T03:48:55;21.90;64.40
74617;DHT22;63123;50.906;4.198;2022-09-12T03:51:21;21.90;64.30
74617;DHT22;63123;50.906;4.198;2022-09-12T03:53:46;22.00;64.30
74617;DHT22;63123;50.906;4.198;2022-09-12T03:56:12;21.90;64.40
74617;DHT22;63123;50.906;4.198;2022-09-12T03:58:38;21.90;64.20
74617;DHT22;63123;50.906;4.198;2022-09-12T04:01:18;21.90;64.20
74617;DHT22;63123;50.906;4.198;2022-09-12T04:03:46;21.90;64.30
74617;DHT22;63123;50.906;4.198;2022-09-12T04:06:14;22.00;65.00
74617;DHT22;63123;50.906;4.198;2022-09-12T04:08:41;21.90;64.30
74617;DHT22;63123;50.906;4.198;2022-09-12T04:11:11;21.90;64.30
74617;DHT22;63123;50.906;4.198;2022-09-12T04:13:38;22.00;64.40
74617;DHT22;63123;50.906;4.198;2022-09-12T04:16:04;21.90;64.30
74617;DHT22;63123;50.906;4.198;2022-09-12T04:18:31;22.00;64.30
74617;DHT22;63123;50.906;4.198;2022-09-12T04:20:57;21.90;64.20
74617;DHT22;63123;50.906;4.198;2022-09-12T04:23:23;21.90;64.10
74617;DHT22;63123;50.906;4.198;2022-09-12T04:25:53;21.90;64.20
74617;DHT22;63123;50.906;4.198;2022-09-12T04:28:19;21.90;64.10
74617;DHT22;63123;50.906;4.198;2022-09-12T04:30:44;21.90;64.20
74617;DHT22;63123;50.906;4.198;2022-09-12T04:33:10;21.90;64.20
74617;DHT22;63123;50.906;4.198;2022-09-12T04:35:35;21.90;64.30
74617;DHT22;63123;50.906;4.198;2022-09-12T04:38:01;21.90;64.20
74617;DHT22;63123;50.906;4.198;2022-09-12T04:40:29;21.90;64.20
74617;DHT22;63123;50.906;4.198;2022-09-12T04:42:54;21.90;64.20
74617;DHT22;63123;50.906;4.198;2022-09-12T04:45:20;21.90;64.20
74617;DHT22;63123;50.906;4.198;2022-09-12T04:47:46;21.90;64.30
74617;DHT22;63123;50.906;4.198;2022-09-12T04:50:12;21.90;64.20
74617;DHT22;63123;50.906;4.198;2022-09-12T04:52:39;21.90;64.20
74617;DHT22;63123;50.906;4.198;2022-09-12T04:55:06;21.90;64.10
74617;DHT22;63123;50.906;4.198;2022-09-12T04:57:31;21.90;64.20
74617;DHT22;63123;50.906;4.198;2022-09-12T04:59:57;22.00;64.20
74617;DHT22;63123;50.906;4.198;2022-09-12T05:02:24;21.90;64.10
74617;DHT22;63123;50.906;4.198;2022-09-12T05:04:50;21.90;64.30
74617;DHT22;63123;50.906;4.198;2022-09-12T05:07:17;21.90;64.10
74617;DHT22;63123;50.906;4.198;2022-09-12T05:09:44;21.90;64.20
74617;DHT22;63123;50.906;4.198;2022-09-12T05:12:10;21.90;64.20
74617;DHT22;63123;50.906;4.198;2022-09-12T05:14:36;21.90;64.00
74617;DHT22;63123;50.906;4.198;2022-09-12T05:17:02;21.90;64.10
74617;DHT22;63123;50.906;4.198;2022-09-12T05:19:29;21.90;64.20
74617;DHT22;63123;50.906;4.198;2022-09-12T05:21:55;21.90;64.10
74617;DHT22;63123;50.906;4.198;2022-09-12T05:24:21;21.90;64.10
74617;DHT22;63123;50.906;4.198;2022-09-12T05:26:46;21.90;64.10
74617;DHT22;63123;50.906;4.198;2022-09-12T05:29:12;21.90;64.20
74617;DHT22;63123;50.906;4.198;2022-09-12T05:31:38;21.90;64.10
74617;DHT22;63123;50.906;4.198;2022-09-12T05:34:03;21.90;64.20
74617;DHT22;63123;50.906;4.198;2022-09-12T05:36:32;21.90;64.10
74617;DHT22;63123;50.906;4.198;2022-09-12T05:39:00;21.90;64.10
74617;DHT22;63123;50.906;4.198;2022-09-12T05:41:28;21.90;64.00
74617;DHT22;63123;50.906;4.198;2022-09-12T05:44:06;21.90;64.00
74617;DHT22;63123;50.906;4.198;2022-09-12T05:46:37;21.90;64.10
74617;DHT22;63123;50.906;4.198;2022-09-12T05:49:07;21.90;64.10
74617;DHT22;63123;50.906;4.198;2022-09-12T05:51:36;21.90;64.00
74617;DHT22;63123;50.906;4.198;2022-09-12T05:54:06;21.90;64.00
74617;DHT22;63123;50.906;4.198;2022-09-12T05:56:36;21.90;64.00
74617;DHT22;63123;50.906;4.198;2022-09-12T05:59:15;22.00;64.00
74617;DHT22;63123;50.906;4.198;2022-09-12T06:01:41;21.90;64.10
74617;DHT22;63123;50.906;4.198;2022-09-12T06:04:07;21.90;64.00
74617;DHT22;63123;50.906;4.198;2022-09-12T06:06:37;21.90;64.00
74617;DHT22;63123;50.906;4.198;2022-09-12T06:09:04;21.90;64.00
74617;DHT22;63123;50.906;4.198;2022-09-12T06:11:32;21.90;64.10
74617;DHT22;63123;50.906;4.198;2022-09-12T06:13:59;21.90;64.10
74617;DHT22;63123;50.906;4.198;2022-09-12T06:16:27;21.90;64.10
74617;DHT22;63123;50.906;4.198;2022-09-12T06:18:55;21.90;64.00
74617;DHT22;63123;50.906;4.198;2022-09-12T06:21:21;21.90;64.10
74617;DHT22;63123;50.906;4.198;2022-09-12T06:23:48;21.90;64.10
74617;DHT22;63123;50.906;4.198;2022-09-12T06:26:15;21.90;64.00
74617;DHT22;63123;50.906;4.198;2022-09-12T06:28:43;21.90;64.10
74617;DHT22;63123;50.906;4.198;2022-09-12T06:31:20;21.90;64.10
74617;DHT22;63123;50.906;4.198;2022-09-12T06:33:48;21.90;64.00
74617;DHT22;63123;50.906;4.198;2022-09-12T06:36:20;21.90;64.10
74617;DHT22;63123;50.906;4.198;2022-09-12T06:38:55;21.90;63.80
74617;DHT22;63123;50.906;4.198;2022-09-12T06:41:22;21.90;63.40
74617;DHT22;63123;50.906;4.198;2022-09-12T06:43:48;21.90;63.50
74617;DHT22;63123;50.906;4.198;2022-09-12T06:46:14;21.90;63.40
74617;DHT22;63123;50.906;4.198;2022-09-12T06:48:39;21.90;63.40
74617;DHT22;63123;50.906;4.198;2022-09-12T06:51:09;21.90;63.40
74617;DHT22;63123;50.906;4.198;2022-09-12T06:53:36;21.90;63.50
74617;DHT22;63123;50.906;4.198;2022-09-12T06:58:29;21.90;63.50
74617;DHT22;63123;50.906;4.198;2022-09-12T07:01:07;22.00;63.50
74617;DHT22;63123;50.906;4.198;2022-09-12T07:03:33;21.90;63.50
74617;DHT22;63123;50.906;4.198;2022-09-12T07:06:08;22.00;63.60
74617;DHT22;63123;50.906;4.198;2022-09-12T07:08:35;22.00;63.50
74617;DHT22;63123;50.906;4.198;2022-09-12T07:11:29;21.90;63.50
74617;DHT22;63123;50.906;4.198;2022-09-12T07:13:57;22.00;63.50
74617;DHT22;63123;50.906;4.198;2022-09-12T07:16:23;22.00;63.50
74617;DHT22;63123;50.906;4.198;2022-09-12T07:18:55;22.00;63.50
74617;DHT22;63123;50.906;4.198;2022-09-12T07:21:22;22.00;63.30
74617;DHT22;63123;50.906;4.198;2022-09-12T07:23:47;22.00;63.30
74617;DHT22;63123;50.906;4.198;2022-09-12T07:26:15;22.00;63.30
74617;DHT22;63123;50.906;4.198;2022-09-12T07:28:41;22.00;63.20
74617;DHT22;63123;50.906;4.198;2022-09-12T07:31:09;22.10;63.30
74617;DHT22;63123;50.906;4.198;2022-09-12T07:33:35;22.10;63.20
74617;DHT22;63123;50.906;4.198;2022-09-12T07:36:06;22.10;63.20
74617;DHT22;63123;50.906;4.198;2022-09-12T07:38:33;22.10;63.20
74617;DHT22;63123;50.906;4.198;2022-09-12T07:40:58;22.10;63.10
74617;DHT22;63123;50.906;4.198;2022-09-12T07:43:26;22.10;63.10
74617;DHT22;63123;50.906;4.198;2022-09-12T07:45:55;22.10;63.00
74617;DHT22;63123;50.906;4.198;2022-09-12T07:48:21;22.10;63.00
74617;DHT22;63123;50.906;4.198;2022-09-12T07:50:58;22.10;63.10
74617;DHT22;63123;50.906;4.198;2022-09-12T07:53:25;22.10;63.00
74617;DHT22;63123;50.906;4.198;2022-09-12T07:55:54;22.10;63.50
74617;DHT22;63123;50.906;4.198;2022-09-12T07:58:20;22.10;62.80
74617;DHT22;63123;50.906;4.198;2022-09-12T08:00:46;22.10;62.80
74617;DHT22;63123;50.906;4.198;2022-09-12T08:03:12;22.20;62.80
74617;DHT22;63123;50.906;4.198;2022-09-12T08:05:37;22.20;62.70
74617;DHT22;63123;50.906;4.198;2022-09-12T08:08:03;22.20;62.70
74617;DHT22;63123;50.906;4.198;2022-09-12T08:10:29;22.20;62.60
74617;DHT22;63123;50.906;4.198;2022-09-12T08:12:54;22.20;62.80
74617;DHT22;63123;50.906;4.198;2022-09-12T08:15:20;22.20;62.70
74617;DHT22;63123;50.906;4.198;2022-09-12T08:17:45;22.20;62.60
74617;DHT22;63123;50.906;4.198;2022-09-12T08:20:11;22.20;63.20
74617;DHT22;63123;50.906;4.198;2022-09-12T08:22:36;22.20;62.60
74617;DHT22;63123;50.906;4.198;2022-09-12T08:25:02;22.20;62.60
74617;DHT22;63123;50.906;4.198;2022-09-12T08:27:28;22.20;62.60
74617;DHT22;63123;50.906;4.198;2022-09-12T08:29:54;22.20;62.60
74617;DHT22;63123;50.906;4.198;2022-09-12T08:32:19;22.30;62.60
74617;DHT22;63123;50.906;4.198;2022-09-12T08:34:45;22.30;62.50
74617;DHT22;63123;50.906;4.198;2022-09-12T08:37:11;22.30;62.50
74617;DHT22;63123;50.906;4.198;2022-09-12T08:39:36;22.30;62.50
74617;DHT22;63123;50.906;4.198;2022-09-12T08:42:04;22.30;62.40
74617;DHT22;63123;50.906;4.198;2022-09-12T08:47:40;22.30;62.30
74617;DHT22;63123;50.906;4.198;2022-09-12T08:55:03;22.40;62.20
74617;DHT22;63123;50.906;4.198;2022-09-12T08:57:31;22.40;62.20
74617;DHT22;63123;50.906;4.198;2022-09-12T08:59:56;22.40;62.10
74617;DHT22;63123;50.906;4.198;2022-09-12T09:10:46;22.40;62.20
74617;DHT22;63123;50.906;4.198;2022-09-12T09:13:25;22.40;62.00
74617;DHT22;63123;50.906;4.198;2022-09-12T09:16:30;22.40;62.00
74617;DHT22;63123;50.906;4.198;2022-09-12T09:19:08;22.40;62.00
74617;DHT22;63123;50.906;4.198;2022-09-12T09:24:25;22.50;61.90
74617;DHT22;63123;50.906;4.198;2022-09-12T09:27:01;22.50;61.80
74617;DHT22;63123;50.906;4.198;2022-09-12T09:29:37;22.50;61.90
74617;DHT22;63123;50.906;4.198;2022-09-12T09:32:20;22.50;62.00
74617;DHT22;63123;50.906;4.198;2022-09-12T09:34:50;22.40;61.90
74617;DHT22;63123;50.906;4.198;2022-09-12T09:45:19;22.40;62.20
74617;DHT22;63123;50.906;4.198;2022-09-12T09:47:50;22.40;62.10
74617;DHT22;63123;50.906;4.198;2022-09-12T09:50:17;22.40;62.20
74617;DHT22;63123;50.906;4.198;2022-09-12T09:52:44;22.40;62.10
74617;DHT22;63123;50.906;4.198;2022-09-12T09:55:17;22.40;62.30
74617;DHT22;63123;50.906;4.198;2022-09-12T09:57:46;22.40;62.30
74617;DHT22;63123;50.906;4.198;2022-09-12T10:06:01;22.40;62.30
74617;DHT22;63123;50.906;4.198;2022-09-12T10:08:32;22.40;62.30
74617;DHT22;63123;50.906;4.198;2022-09-12T10:13:44;22.30;62.30
74617;DHT22;63123;50.906;4.198;2022-09-12T10:18:50;22.40;62.40
74617;DHT22;63123;50.906;4.198;2022-09-12T10:21:29;22.40;62.50
74617;DHT22;63123;50.906;4.198;2022-09-12T10:26:39;22.40;62.30
74617;DHT22;63123;50.906;4.198;2022-09-12T10:29:15;22.40;63.00
74617;DHT22;63123;50.906;4.198;2022-09-12T10:31:48;22.40;62.40
74617;DHT22;63123;50.906;4.198;2022-09-12T10:34:30;22.40;62.30
74617;DHT22;63123;50.906;4.198;2022-09-12T10:37:05;22.40;62.40
74617;DHT22;63123;50.906;4.198;2022-09-12T10:39:31;22.40;62.40
74617;DHT22;63123;50.906;4.198;2022-09-12T10:41:59;22.40;62.50
74617;DHT22;63123;50.906;4.198;2022-09-12T10:44:27;22.40;62.40
74617;DHT22;63123;50.906;4.198;2022-09-12T10:46:54;22.30;62.20
74617;DHT22;63123;50.906;4.198;2022-09-12T10:49:29;22.40;62.20
74617;DHT22;63123;50.906;4.198;2022-09-12T10:51:57;22.40;62.20
74617;DHT22;63123;50.906;4.198;2022-09-12T10:54:40;22.40;62.70
74617;DHT22;63123;50.906;4.198;2022-09-12T11:00:03;22.40;62.30
74617;DHT22;63123;50.906;4.198;2022-09-12T11:02:39;22.40;62.30
74617;DHT22;63123;50.906;4.198;2022-09-12T11:05:13;22.40;62.40
74617;DHT22;63123;50.906;4.198;2022-09-12T11:07:48;22.40;62.10
74617;DHT22;63123;50.906;4.198;2022-09-12T11:10:40;22.30;62.10
74617;DHT22;63123;50.906;4.198;2022-09-12T11:21:26;22.40;62.30
74617;DHT22;63123;50.906;4.198;2022-09-12T11:27:12;22.40;62.10
74617;DHT22;63123;50.906;4.198;2022-09-12T11:29:51;22.40;62.00
74617;DHT22;63123;50.906;4.198;2022-09-12T11:32:42;22.40;61.90
74617;DHT22;63123;50.906;4.198;2022-09-12T11:35:27;22.40;62.10
74617;DHT22;63123;50.906;4.198;2022-09-12T11:45:52;22.40;61.80
74617;DHT22;63123;50.906;4.198;2022-09-12T11:48:40;22.40;61.80
74617;DHT22;63123;50.906;4.198;2022-09-12T11:51:26;22.40;61.90
74617;DHT22;63123;50.906;4.198;2022-09-12T11:54:04;22.30;61.80
74617;DHT22;63123;50.906;4.198;2022-09-12T11:56:37;22.40;61.70
74617;DHT22;63123;50.906;4.198;2022-09-12T11:59:13;22.40;61.70
74617;DHT22;63123;50.906;4.198;2022-09-12T12:01:41;22.40;61.60
74617;DHT22;63123;50.906;4.198;2022-09-12T12:04:11;22.30;61.70
74617;DHT22;63123;50.906;4.198;2022-09-12T12:06:50;22.40;61.90
74617;DHT22;63123;50.906;4.198;2022-09-12T12:09:17;22.40;61.70
74617;DHT22;63123;50.906;4.198;2022-09-12T12:11:47;22.40;61.70
74617;DHT22;63123;50.906;4.198;2022-09-12T12:16:53;22.40;61.60
74617;DHT22;63123;50.906;4.198;2022-09-12T12:19:35;22.40;61.60
74617;DHT22;63123;50.906;4.198;2022-09-12T12:22:07;22.40;61.30
74617;DHT22;63123;50.906;4.198;2022-09-12T12:24:33;22.30;61.40
74617;DHT22;63123;50.906;4.198;2022-09-12T12:27:01;22.30;61.40
74617;DHT22;63123;50.906;4.198;2022-09-12T12:29:38;22.40;61.00
74617;DHT22;63123;50.906;4.198;2022-09-12T12:34:40;22.40;61.60
74617;DHT22;63123;50.906;4.198;2022-09-12T12:52:52;22.30;61.40
74617;DHT22;63123;50.906;4.198;2022-09-12T12:55:37;22.40;61.50
74617;DHT22;63123;50.906;4.198;2022-09-12T12:58:33;22.30;61.40
74617;DHT22;63123;50.906;4.198;2022-09-12T13:01:19;22.30;61.40
74617;DHT22;63123;50.906;4.198;2022-09-12T13:03:54;22.40;61.40
74617;DHT22;63123;50.906;4.198;2022-09-12T13:06:37;22.40;61.30
74617;DHT22;63123;50.906;4.198;2022-09-12T13:09:26;22.40;61.70
74617;DHT22;63123;50.906;4.198;2022-09-12T13:12:06;22.30;61.50
74617;DHT22;63123;50.906;4.198;2022-09-12T13:17:04;22.40;61.60
74617;DHT22;63123;50.906;4.198;2022-09-12T13:19:32;22.40;62.10
74617;DHT22;63123;50.906;4.198;2022-09-12T13:22:06;22.30;61.30
74617;DHT22;63123;50.906;4.198;2022-09-12T13:24:32;22.40;61.50
74617;DHT22;63123;50.906;4.198;2022-09-12T13:26:58;22.40;61.30
74617;DHT22;63123;50.906;4.198;2022-09-12T13:29:26;22.40;61.30
74617;DHT22;63123;50.906;4.198;2022-09-12T13:31:59;22.40;61.30
74617;DHT22;63123;50.906;4.198;2022-09-12T13:34:29;22.40;61.30
74617;DHT22;63123;50.906;4.198;2022-09-12T13:39:33;22.40;61.10
74617;DHT22;63123;50.906;4.198;2022-09-12T13:44:55;22.30;61.50
74617;DHT22;63123;50.906;4.198;2022-09-12T13:47:26;22.30;61.60
74617;DHT22;63123;50.906;4.198;2022-09-12T13:49:55;22.30;61.50
74617;DHT22;63123;50.906;4.198;2022-09-12T13:52:24;22.30;61.50
74617;DHT22;63123;50.906;4.198;2022-09-12T13:54:55;22.40;61.40
74617;DHT22;63123;50.906;4.198;2022-09-12T13:57:38;22.30;61.50
74617;DHT22;63123;50.906;4.198;2022-09-12T14:02:39;22.40;61.30
74617;DHT22;63123;50.906;4.198;2022-09-12T14:05:34;22.40;61.20
74617;DHT22;63123;50.906;4.198;2022-09-12T14:08:06;22.30;61.30
74617;DHT22;63123;50.906;4.198;2022-09-12T14:10:41;22.40;61.90
74617;DHT22;63123;50.906;4.198;2022-09-12T14:13:23;22.40;61.00
74617;DHT22;63123;50.906;4.198;2022-09-12T14:15:51;22.40;61.50
74617;DHT22;63123;50.906;4.198;2022-09-12T14:18:24;22.40;61.30
74617;DHT22;63123;50.906;4.198;2022-09-12T14:20:50;22.40;61.90
74617;DHT22;63123;50.906;4.198;2022-09-12T14:23:28;22.40;61.80
74617;DHT22;63123;50.906;4.198;2022-09-12T14:25:55;22.40;61.30
74617;DHT22;63123;50.906;4.198;2022-09-12T14:28:23;22.40;61.20
74617;DHT22;63123;50.906;4.198;2022-09-12T14:31:17;22.50;61.20
74617;DHT22;63123;50.906;4.198;2022-09-12T14:36:31;22.40;61.00
74617;DHT22;63123;50.906;4.198;2022-09-12T14:39:03;22.50;61.10
74617;DHT22;63123;50.906;4.198;2022-09-12T14:41:33;22.40;60.80
74617;DHT22;63123;50.906;4.198;2022-09-12T14:44:01;22.40;61.00
74617;DHT22;63123;50.906;4.198;2022-09-12T14:46:36;22.40;60.90
74617;DHT22;63123;50.906;4.198;2022-09-12T14:49:12;22.40;60.90
74617;DHT22;63123;50.906;4.198;2022-09-12T14:51:51;22.40;61.20
74617;DHT22;63123;50.906;4.198;2022-09-12T14:56:53;22.40;60.70
74617;DHT22;63123;50.906;4.198;2022-09-12T15:04:49;22.40;60.70
74617;DHT22;63123;50.906;4.198;2022-09-12T15:09:52;22.40;60.70
74617;DHT22;63123;50.906;4.198;2022-09-12T15:12:18;22.40;60.70
74617;DHT22;63123;50.906;4.198;2022-09-12T15:14:44;22.40;60.70
74617;DHT22;63123;50.906;4.198;2022-09-12T15:17:09;22.40;61.00
74617;DHT22;63123;50.906;4.198;2022-09-12T15:19:35;22.40;61.30
74617;DHT22;63123;50.906;4.198;2022-09-12T15:22:00;22.40;61.20
74617;DHT22;63123;50.906;4.198;2022-09-12T15:24:26;22.40;60.60
74617;DHT22;63123;50.906;4.198;2022-09-12T15:26:52;22.40;61.00
74617;DHT22;63123;50.906;4.198;2022-09-12T15:29:18;22.40;60.90
74617;DHT22;63123;50.906;4.198;2022-09-12T15:31:45;22.40;61.10
74617;DHT22;63123;50.906;4.198;2022-09-12T15:34:12;22.40;61.00
74617;DHT22;63123;50.906;4.198;2022-09-12T15:36:37;22.40;61.00
74617;DHT22;63123;50.906;4.198;2022-09-12T15:39:03;22.40;60.90
74617;DHT22;63123;50.906;4.198;2022-09-12T15:41:34;22.40;61.10
74617;DHT22;63123;50.906;4.198;2022-09-12T15:44:03;22.40;61.00
74617;DHT22;63123;50.906;4.198;2022-09-12T15:46:29;22.40;60.80
74617;DHT22;63123;50.906;4.198;2022-09-12T15:48:55;22.40;61.00
74617;DHT22;63123;50.906;4.198;2022-09-12T15:51:20;22.40;60.90
74617;DHT22;63123;50.906;4.198;2022-09-12T15:53:47;22.40;60.70
74617;DHT22;63123;50.906;4.198;2022-09-12T15:56:18;22.40;61.00
74617;DHT22;63123;50.906;4.198;2022-09-12T15:58:43;22.40;60.80
74617;DHT22;63123;50.906;4.198;2022-09-12T16:01:14;22.30;61.00
74617;DHT22;63123;50.906;4.198;2022-09-12T16:03:40;22.30;60.70
74617;DHT22;63123;50.906;4.198;2022-09-12T16:06:06;22.30;61.00
74617;DHT22;63123;50.906;4.198;2022-09-12T16:08:34;22.30;61.00
74617;DHT22;63123;50.906;4.198;2022-09-12T16:11:14;22.30;60.70
74617;DHT22;63123;50.906;4.198;2022-09-12T16:13:42;22.30;61.40
74617;DHT22;63123;50.906;4.198;2022-09-12T16:16:08;22.30;60.80
74617;DHT22;63123;50.906;4.198;2022-09-12T16:18:33;22.30;61.00
74617;DHT22;63123;50.906;4.198;2022-09-12T16:20:59;22.30;61.10
74617;DHT22;63123;50.906;4.198;2022-09-12T16:23:25;22.30;60.80
74617;DHT22;63123;50.906;4.198;2022-09-12T16:26:04;22.30;61.30
74617;DHT22;63123;50.906;4.198;2022-09-12T16:28:30;22.30;61.30
74617;DHT22;63123;50.906;4.198;2022-09-12T16:31:03;22.30;61.30
74617;DHT22;63123;50.906;4.198;2022-09-12T16:33:30;22.30;61.40
74617;DHT22;63123;50.906;4.198;2022-09-12T16:36:06;22.30;61.30
74617;DHT22;63123;50.906;4.198;2022-09-12T16:38:33;22.30;61.40
74617;DHT22;63123;50.906;4.198;2022-09-12T16:41:04;22.30;61.60
74617;DHT22;63123;50.906;4.198;2022-09-12T16:43:31;22.30;61.60
74617;DHT22;63123;50.906;4.198;2022-09-12T16:46:11;22.30;61.60
74617;DHT22;63123;50.906;4.198;2022-09-12T16:48:45;22.30;61.40
74617;DHT22;63123;50.906;4.198;2022-09-12T16:51:12;22.30;61.60
74617;DHT22;63123;50.906;4.198;2022-09-12T16:53:38;22.30;61.50
74617;DHT22;63123;50.906;4.198;2022-09-12T16:56:05;22.30;61.60
74617;DHT22;63123;50.906;4.198;2022-09-12T16:58:35;22.30;61.80
74617;DHT22;63123;50.906;4.198;2022-09-12T17:01:04;22.30;61.70
74617;DHT22;63123;50.906;4.198;2022-09-12T17:03:31;22.30;61.70
74617;DHT22;63123;50.906;4.198;2022-09-12T17:06:05;22.30;61.80
74617;DHT22;63123;50.906;4.198;2022-09-12T17:08:33;22.30;61.90
74617;DHT22;63123;50.906;4.198;2022-09-12T17:11:04;22.30;61.90
74617;DHT22;63123;50.906;4.198;2022-09-12T17:13:30;22.20;61.90
74617;DHT22;63123;50.906;4.198;2022-09-12T17:15:56;22.20;62.00
74617;DHT22;63123;50.906;4.198;2022-09-12T17:18:22;22.30;62.10
74617;DHT22;63123;50.906;4.198;2022-09-12T17:20:48;22.20;62.10
74617;DHT22;63123;50.906;4.198;2022-09-12T17:23:14;22.20;62.00
74617;DHT22;63123;50.906;4.198;2022-09-12T17:25:44;22.20;62.00
74617;DHT22;63123;50.906;4.198;2022-09-12T17:28:09;22.20;62.10
74617;DHT22;63123;50.906;4.198;2022-09-12T17:30:35;22.30;62.20
74617;DHT22;63123;50.906;4.198;2022-09-12T17:33:01;22.20;62.20
74617;DHT22;63123;50.906;4.198;2022-09-12T17:35:27;22.20;62.30
74617;DHT22;63123;50.906;4.198;2022-09-12T17:37:53;22.20;62.40
74617;DHT22;63123;50.906;4.198;2022-09-12T17:40:19;22.20;62.30
74617;DHT22;63123;50.906;4.198;2022-09-12T17:42:45;22.20;62.40
74617;DHT22;63123;50.906;4.198;2022-09-12T17:45:11;22.30;62.50
74617;DHT22;63123;50.906;4.198;2022-09-12T17:47:38;22.30;62.60
74617;DHT22;63123;50.906;4.198;2022-09-12T17:50:04;22.30;62.60
74617;DHT22;63123;50.906;4.198;2022-09-12T17:52:30;22.30;62.60
74617;DHT22;63123;50.906;4.198;2022-09-12T17:54:55;22.20;62.60
74617;DHT22;63123;50.906;4.198;2022-09-12T17:57:21;22.30;62.70
74617;DHT22;63123;50.906;4.198;2022-09-12T17:59:47;22.30;62.60
74617;DHT22;63123;50.906;4.198;2022-09-12T18:02:12;22.30;62.70
74617;DHT22;63123;50.906;4.198;2022-09-12T18:04:39;22.20;62.60
74617;DHT22;63123;50.906;4.198;2022-09-12T18:07:06;22.20;62.60
74617;DHT22;63123;50.906;4.198;2022-09-12T18:09:32;22.20;62.60
74617;DHT22;63123;50.906;4.198;2022-09-12T18:11:58;22.20;62.70
74617;DHT22;63123;50.906;4.198;2022-09-12T18:14:24;22.20;62.70
74617;DHT22;63123;50.906;4.198;2022-09-12T18:16:52;22.20;62.80
74617;DHT22;63123;50.906;4.198;2022-09-12T18:19:17;22.20;62.90
74617;DHT22;63123;50.906;4.198;2022-09-12T18:21:43;22.20;62.80
74617;DHT22;63123;50.906;4.198;2022-09-12T18:24:09;22.20;62.90
74617;DHT22;63123;50.906;4.198;2022-09-12T18:26:35;22.20;62.90
74617;DHT22;63123;50.906;4.198;2022-09-12T18:29:01;22.20;62.90
74617;DHT22;63123;50.906;4.198;2022-09-12T18:31:28;22.20;62.90